Time;durP1;ratioP1;P1;durP2;ratioP2;P2;SDS_P1;SDS_P2;PMS_P1;PMS_P2;Temp;Humidity;BMP_temperature;BMP_pressure;BME280_temperature;BME280_humidity;BME280_pressure;Samples;Min_cycle;Max_cycle;Signal;HPM_P1;HPM_P2
2023/04/29 00:00:22;;;;;;;3.07;2.87;;;11.30;27.20;;;;;;5094273;28;20770;-74
2023/04/29 00:02:53;;;;;;;3.73;3.00;;;11.30;27.20;;;;;;5113463;28;20185;-74
2023/04/29 00:05:19;;;;;;;4.23;2.93;;;11.30;28.50;;;;;;5106507;28;20178;-74
2023/04/29 00:07:45;;;;;;;2.93;2.50;;;11.20;28.70;;;;;;5094493;28;20435;-74
2023/04/29 00:10:13;;;;;;;3.90;2.83;;;11.30;27.80;;;;;;5076299;28;20280;-74
2023/04/29 00:12:41;;;;;;;5.70;2.87;;;11.20;27.10;;;;;;5095079;28;20162;-81
2023/04/29 00:15:17;;;;;;;13.53;3.40;;;11.20;28.10;;;;;;5095008;28;20433;-81
2023/04/29 00:17:46;;;;;;;5.33;3.00;;;11.20;29.70;;;;;;5102104;28;20967;-80
2023/04/29 00:20:46;;;;;;;4.13;3.00;;;11.30;26.70;;;;;;5114625;28;20362;-81
2023/04/29 00:23:34;;;;;;;5.67;2.73;;;11.20;25.70;;;;;;5094126;28;20416;-81
2023/04/29 00:26:10;;;;;;;6.10;3.03;;;11.20;26.30;;;;;;5094380;28;20403;-80
2023/04/29 00:29:10;;;;;;;3.50;2.53;;;11.20;23.10;;;;;;5094027;28;20462;-81
2023/04/29 00:32:10;;;;;;;6.20;2.70;;;11.20;23.20;;;;;;5093876;28;20522;-81
2023/04/29 00:34:41;;;;;;;10.50;3.10;;;11.10;22.20;;;;;;5075574;28;20942;-80
2023/04/29 00:37:16;;;;;;;8.97;3.50;;;11.10;22.70;;;;;;5094038;28;20340;-81
2023/04/29 00:39:52;;;;;;;7.67;3.10;;;11.10;23.40;;;;;;5093691;28;20416;-81
2023/04/29 00:42:19;;;;;;;3.73;3.13;;;11.00;24.30;;;;;;5094055;28;20972;-74
2023/04/29 00:44:46;;;;;;;7.20;3.43;;;11.00;23.80;;;;;;5075835;28;20526;-74
2023/04/29 00:47:12;;;;;;;14.97;3.77;;;11.10;22.10;;;;;;5094002;28;20355;-74
2023/04/29 00:49:38;;;;;;;10.23;4.10;;;11.00;22.20;;;;;;5093896;28;20372;-74
2023/04/29 00:52:06;;;;;;;10.63;3.70;;;10.90;22.40;;;;;;5095213;28;20198;-74
2023/04/29 00:54:34;;;;;;;6.47;3.40;;;10.90;24.20;;;;;;5088454;28;20945;-74
2023/04/29 00:57:06;;;;;;;14.77;3.80;;;10.80;24.70;;;;;;5094083;28;20438;-81
2023/04/29 00:59:35;;;;;;;8.87;3.77;;;10.80;26.80;;;;;;5093950;28;20842;-81
2023/04/29 01:02:11;;;;;;;5.47;3.57;;;10.70;27.70;;;;;;5093963;28;20894;-81
2023/04/29 01:04:40;;;;;;;4.10;3.07;;;10.60;28.80;;;;;;5100978;28;20454;-82
2023/04/29 01:07:51;;;;;;;5.87;3.20;;;10.60;30.30;;;;;;5114130;28;20396;-81
2023/04/29 01:11:00;;;;;;;3.83;3.07;;;10.50;34.50;;;;;;5011312;28;20566;-80
2023/04/29 01:13:43;;;;;;;4.20;3.37;;;10.50;33.70;;;;;;5014924;28;20450;-81
2023/04/29 01:19:45;;;;;;;3.87;3.33;;;10.40;42.10;;;;;;5015305;28;20395;-80
2023/04/29 01:22:28;;;;;;;6.47;4.03;;;10.40;42.20;;;;;;5015062;28;20910;-80
2023/04/29 01:24:58;;;;;;;3.73;3.43;;;10.40;42.40;;;;;;5008754;28;20431;-80
2023/04/29 01:27:27;;;;;;;4.63;3.57;;;10.40;42.20;;;;;;5015710;28;20487;-80
2023/04/29 01:30:07;;;;;;;3.73;3.40;;;10.40;42.40;;;;;;5014974;28;20421;-80
2023/04/29 01:32:52;;;;;;;3.67;3.10;;;10.40;42.40;;;;;;5014950;28;20428;-81
2023/04/29 01:35:27;;;;;;;6.03;3.30;;;10.50;42.30;;;;;;5014455;28;20843;-81
2023/04/29 01:38:04;;;;;;;5.53;3.40;;;10.50;42.50;;;;;;5015106;28;20412;-80
2023/04/29 01:41:09;;;;;;;4.27;3.10;;;10.50;42.30;;;;;;5014525;28;20437;-81
2023/04/29 01:43:37;;;;;;;4.93;3.53;;;10.50;42.30;;;;;;4987064;28;20967;-81
2023/04/29 01:46:07;;;;;;;4.30;3.57;;;10.50;42.30;;;;;;5028459;28;21041;-81
2023/04/29 01:48:36;;;;;;;4.40;3.33;;;10.60;42.40;;;;;;5034066;28;20480;-81
2023/04/29 01:51:01;;;;;;;3.90;3.50;;;10.50;42.30;;;;;;5020161;28;20464;-81
2023/04/29 01:53:27;;;;;;;5.57;3.80;;;10.40;42.20;;;;;;5017822;28;20914;-81
2023/04/29 01:56:10;;;;;;;4.67;3.37;;;10.70;42.60;;;;;;5033835;28;20255;-81
2023/04/29 01:58:36;;;;;;;6.83;3.87;;;10.40;42.20;;;;;;5017648;28;20601;-80
2023/04/29 02:01:05;;;;;;;3.97;3.60;;;10.40;42.40;;;;;;5034404;28;20442;-81
2023/04/29 02:03:40;;;;;;;6.50;3.50;;;10.40;46.30;;;;;;5034794;28;20156;-81
2023/04/29 02:06:10;;;;;;;5.60;3.53;;;10.40;42.40;;;;;;5033841;28;20811;-81
2023/04/29 02:08:40;;;;;;;4.10;3.70;;;10.50;42.30;;;;;;5034378;28;20403;-80
2023/04/29 02:11:10;;;;;;;5.33;3.60;;;10.50;42.40;;;;;;5034370;28;20566;-81
2023/04/29 02:13:36;;;;;;;6.90;3.47;;;10.60;42.50;;;;;;5023621;28;20470;-75
2023/04/29 02:16:13;;;;;;;6.47;3.77;;;10.60;42.60;;;;;;5026999;28;20469;-75
2023/04/29 02:18:39;;;;;;;4.33;3.60;;;10.70;42.50;;;;;;5035429;28;20164;-74
2023/04/29 02:21:06;;;;;;;4.73;3.90;;;10.80;42.60;;;;;;5096427;28;20406;-74
2023/04/29 02:23:35;;;;;;;6.07;3.93;;;10.70;42.50;;;;;;5096094;28;20434;-74
2023/04/29 02:26:04;;;;;;;12.20;3.87;;;10.80;42.80;;;;;;5107505;28;20427;-74
2023/04/29 02:28:30;;;;;;;10.20;3.50;;;10.90;42.70;;;;;;5110181;28;20885;-74
2023/04/29 02:30:55;;;;;;;6.23;3.80;;;11.00;43.00;;;;;;5096370;28;20489;-74
2023/04/29 02:33:21;;;;;;;7.37;3.63;;;11.00;43.00;;;;;;5096197;28;20261;-74
2023/04/29 02:35:53;;;;;;;7.33;3.60;;;11.20;43.00;;;;;;5097097;28;20781;-74
2023/04/29 02:38:22;;;;;;;7.60;3.80;;;11.30;43.20;;;;;;5106680;28;20182;-74
2023/04/29 02:40:49;;;;;;;11.93;3.73;;;11.20;42.90;;;;;;5116544;28;20845;-74
2023/04/29 02:43:16;;;;;;;5.87;3.87;;;11.40;43.30;;;;;;5117213;28;20354;-81
2023/04/29 02:45:46;;;;;;;4.90;3.73;;;11.30;43.20;;;;;;5092956;28;20898;-81
2023/04/29 02:48:28;;;;;;;5.27;4.00;;;11.50;43.40;;;;;;5095827;28;20480;-82
2023/04/29 02:51:10;;;;;;;8.90;3.50;;;11.50;43.30;;;;;;5096127;28;20823;-81
2023/04/29 02:53:36;;;;;;;9.67;3.80;;;11.60;43.40;;;;;;5095424;28;20430;-81
2023/04/29 02:56:22;;;;;;;3.53;3.23;;;11.60;43.30;;;;;;5100143;28;20431;-81
2023/04/29 02:58:58;;;;;;;3.10;2.90;;;11.70;43.40;;;;;;5116638;28;20200;-74
2023/04/29 03:01:28;;;;;;;4.83;3.27;;;11.70;43.40;;;;;;5099209;28;20411;-74
2023/04/29 03:03:54;;;;;;;5.90;4.57;;;11.80;43.50;;;;;;5095720;28;20816;-74
2023/04/29 03:06:22;;;;;;;8.73;4.13;;;11.70;43.40;;;;;;5095850;28;20403;-74
2023/04/29 03:08:48;;;;;;;4.50;4.10;;;11.80;43.50;;;;;;5095606;28;20190;-74
2023/04/29 03:11:16;;;;;;;5.60;3.87;;;12.00;43.70;;;;;;5095376;28;20448;-74
2023/04/29 03:13:47;;;;;;;5.53;3.93;;;12.00;43.60;;;;;;5095784;28;20366;-82
2023/04/29 03:16:16;;;;;;;5.33;4.27;;;12.00;43.90;;;;;;5095433;28;20429;-81
2023/04/29 03:18:47;;;;;;;6.93;4.70;;;12.00;43.60;;;;;;5095330;28;20363;-81
2023/04/29 03:21:29;;;;;;;8.57;4.43;;;12.10;44.00;;;;;;5095230;28;20382;-81
2023/04/29 03:24:40;;;;;;;12.03;4.60;;;12.20;44.00;;;;;;5079853;28;20430;-81
2023/04/29 03:27:10;;;;;;;7.70;3.90;;;12.20;44.00;;;;;;5086578;28;20450;-81
2023/04/29 03:29:36;;;;;;;11.03;4.40;;;12.30;43.90;;;;;;5095552;28;20379;-74
2023/04/29 03:32:02;;;;;;;6.50;4.73;;;12.20;38.90;;;;;;5102263;28;20449;-74
2023/04/29 03:34:28;;;;;;;7.17;5.80;;;12.10;43.70;;;;;;5114486;28;20425;-74
2023/04/29 03:36:54;;;;;;;6.77;4.87;;;12.10;43.90;;;;;;5105218;28;20622;-74
2023/04/29 03:39:22;;;;;;;9.93;6.07;;;12.10;43.90;;;;;;5095064;28;20423;-74
2023/04/29 03:41:59;;;;;;;13.83;8.60;;;12.10;43.70;;;;;;5095235;28;20170;-74
2023/04/29 03:44:25;;;;;;;18.53;11.20;;;12.00;40.00;;;;;;5095459;28;20848;-75
2023/04/29 03:47:10;;;;;;;20.87;11.43;;;12.10;21.10;;;;;;5097692;28;20427;-88
2023/04/29 03:49:36;;;;;;;16.97;10.40;;;12.10;12.20;;;;;;5095382;28;20388;-88
2023/04/29 03:52:11;;;;;;;15.60;9.00;;;12.20;4.10;;;;;;5077342;28;20492;-88
2023/04/29 03:54:41;;;;;;;16.83;9.07;;;12.30;1.90;;;;;;5077265;28;20414;-88
2023/04/29 03:57:10;;;;;;;12.20;9.37;;;12.40;1.00;;;;;;5101161;28;20913;-88
2023/04/29 03:59:40;;;;;;;14.10;9.47;;;12.50;1.00;;;;;;5115506;28;20390;-83
2023/04/29 04:02:10;;;;;;;15.53;9.03;;;12.50;1.00;;;;;;5092909;28;20395;-83
2023/04/29 04:04:41;;;;;;;13.43;9.30;;;12.60;1.00;;;;;;5094605;28;20758;-83
2023/04/29 04:07:11;;;;;;;12.83;8.77;;;12.60;1.00;;;;;;5094312;28;20919;-83
2023/04/29 04:09:40;;;;;;;11.70;8.50;;;12.70;1.00;;;;;;5094426;28;20484;-83
2023/04/29 04:12:40;;;;;;;14.97;8.80;;;12.70;1.00;;;;;;5076222;28;20427;-83
2023/04/29 04:15:41;;;;;;;15.97;9.60;;;12.70;1.00;;;;;;5094613;28;20383;-83
2023/04/29 04:18:10;;;;;;;9.33;8.20;;;12.80;1.00;;;;;;5093803;28;20792;-82
2023/04/29 04:21:11;;;;;;;11.57;8.40;;;12.80;1.00;;;;;;5093823;28;20431;-83
2023/04/29 04:23:58;;;;;;;15.60;8.43;;;12.90;1.00;;;;;;5111031;28;20389;-83
2023/04/29 04:27:10;;;;;;;15.83;9.33;;;12.90;1.00;;;;;;5114798;28;20457;-82
2023/04/29 04:29:40;;;;;;;13.83;9.43;;;12.90;1.00;;;;;;5094775;28;20363;-83
2023/04/29 04:35:28;;;;;;;15.20;7.57;;;12.80;1.00;;;;;;5097760;28;20398;-82
2023/04/29 04:41:15;;;;;;;14.40;8.40;;;12.80;1.00;;;;;;5093929;28;20712;-82
2023/04/29 04:44:22;;;;;;;13.23;8.73;;;12.80;1.00;;;;;;5093972;28;20378;-83
2023/04/29 04:47:40;;;;;;;11.93;7.87;;;12.80;1.00;;;;;;5093999;28;20165;-82
2023/04/29 04:50:58;;;;;;;14.17;10.07;;;12.80;1.00;;;;;;5111736;28;20918;-83
2023/04/29 04:56:47;;;;;;;11.80;8.80;;;12.80;1.00;;;;;;5093512;28;20449;-82
2023/04/29 05:05:58;;;;;;;14.67;8.97;;;12.90;1.00;;;;;;5114655;28;20410;-89
2023/04/29 05:11:53;;;;;;;17.53;9.77;;;12.90;1.00;;;;;;5114695;28;20477;-88
2023/04/29 05:14:35;;;;;;;16.20;8.93;;;13.00;1.00;;;;;;5097062;28;20529;-88
2023/04/29 05:20:22;;;;;;;15.07;9.07;;;13.10;1.00;;;;;;5098486;28;20411;-89
2023/04/29 05:26:10;;;;;;;17.90;8.90;;;13.40;1.00;;;;;;5094298;28;20520;-89
2023/04/29 05:29:22;;;;;;;17.90;9.57;;;13.50;1.00;;;;;;5080746;28;20482;-88
2023/04/29 05:35:10;;;;;;;13.20;8.63;;;13.50;1.00;;;;;;5094067;28;20789;-88
2023/04/29 05:40:57;;;;;;;16.30;8.30;;;13.60;1.00;;;;;;5094152;28;20201;-88
2023/04/29 05:43:46;;;;;;;14.67;8.03;;;13.70;1.00;;;;;;5076210;28;20895;-88
2023/04/29 05:49:47;;;;;;;11.20;6.80;;;13.90;1.00;;;;;;5103776;28;20778;-83
2023/04/29 05:56:16;;;;;;;13.40;6.57;;;14.30;1.00;;;;;;5109043;28;20418;-83
2023/04/29 05:59:22;;;;;;;10.80;6.73;;;14.50;1.00;;;;;;5086203;28;20546;-86
2023/04/29 06:01:53;;;;;;;10.70;6.40;;;14.60;1.00;;;;;;5096863;28;20416;-83
2023/04/29 06:07:41;;;;;;;12.47;6.60;;;14.80;1.00;;;;;;5096770;28;20379;-82
2023/04/29 06:10:46;;;;;;;9.67;5.40;;;14.70;1.00;;;;;;5097228;28;20432;-83
2023/04/29 06:13:23;;;;;;;8.63;5.43;;;14.80;1.00;;;;;;5097875;28;20423;-83
2023/04/29 06:16:34;;;;;;;7.10;4.90;;;14.90;1.00;;;;;;5078641;28;20788;-83
2023/04/29 06:22:58;;;;;;;10.60;5.87;;;14.90;1.00;;;;;;5111228;28;20997;-82
2023/04/29 06:28:49;;;;;;;10.67;5.63;;;15.00;1.00;;;;;;5096276;28;20875;-83
2023/04/29 06:31:58;;;;;;;6.90;5.57;;;15.00;1.00;;;;;;5078399;28;20855;-83
2023/04/29 06:34:46;;;;;;;8.50;5.67;;;14.80;1.00;;;;;;5077770;28;20401;-83
2023/04/29 06:37:46;;;;;;;8.33;5.70;;;14.70;1.00;;;;;;5090888;28;20423;-81
2023/04/29 06:40:29;;;;;;;7.50;5.50;;;14.60;1.00;;;;;;5116388;28;20388;-79
2023/04/29 06:43:29;;;;;;;9.13;4.90;;;14.60;1.00;;;;;;5097892;28;20903;-79
2023/04/29 06:49:25;;;;;;;8.87;5.70;;;14.50;1.00;;;;;;5111383;28;20767;-80
2023/04/29 06:51:51;;;;;;;6.30;4.83;;;14.80;1.00;;;;;;5097745;28;20440;-80
2023/04/29 06:54:58;;;;;;;7.87;5.30;;;14.70;1.00;;;;;;5109859;28;20787;-80
2023/04/29 06:58:10;;;;;;;8.47;5.30;;;14.90;1.00;;;;;;5095800;28;20195;-80
2023/04/29 07:03:58;;;;;;;7.40;5.00;;;15.40;1.00;;;;;;5096966;28;20913;-84
2023/04/29 07:09:45;;;;;;;8.17;5.87;;;15.50;1.00;;;;;;5113602;28;20208;-86
2023/04/29 07:22:30;;;;;;;12.47;7.57;;;15.30;1.00;;;;;;5095888;28;20455;-87
2023/04/29 07:28:18;;;;;;;8.43;5.33;;;15.20;1.00;;;;;;5095990;28;20182;-86
2023/04/29 07:30:59;;;;;;;5.00;4.50;;;15.10;1.00;;;;;;5076825;28;20916;-79
2023/04/29 07:33:35;;;;;;;7.17;4.70;;;14.90;1.00;;;;;;5093256;28;20190;-79
2023/04/29 07:36:17;;;;;;;6.00;5.03;;;15.00;1.00;;;;;;5094977;28;20403;-79
2023/04/29 07:42:05;;;;;;;7.30;5.00;;;15.20;1.00;;;;;;5094887;28;20419;-83
2023/04/29 07:47:52;;;;;;;5.73;4.40;;;15.40;1.00;;;;;;5099708;28;20185;-83
2023/04/29 07:50:37;;;;;;;6.37;4.40;;;15.40;1.00;;;;;;5115071;28;20412;-82
2023/04/29 07:53:34;;;;;;;7.23;4.70;;;15.20;1.00;;;;;;5110067;28;20189;-89
2023/04/29 07:59:22;;;;;;;6.20;4.60;;;15.10;1.00;;;;;;5094217;28;20773;-84
2023/04/29 08:01:47;;;;;;;4.80;4.27;;;15.10;1.00;;;;;;5076601;28;20420;-84
2023/04/29 08:07:35;;;;;;;9.20;4.50;;;15.10;1.00;;;;;;5094272;28;20216;-83
2023/04/29 08:10:42;;;;;;;7.00;5.00;;;15.50;1.00;;;;;;5076661;28;20400;-85
2023/04/29 08:13:07;;;;;;;8.30;4.33;;;15.40;1.00;;;;;;5078003;28;20179;-85
2023/04/29 08:15:47;;;;;;;7.33;4.40;;;15.60;1.00;;;;;;5077833;28;20786;-82
2023/04/29 08:18:28;;;;;;;10.33;4.60;;;15.70;1.00;;;;;;5102006;28;20206;-81
2023/04/29 08:20:59;;;;;;;8.80;4.30;;;15.70;1.00;;;;;;5102190;28;20452;-81
2023/04/29 08:23:34;;;;;;;4.60;4.00;;;15.70;1.00;;;;;;5095824;28;20411;-81
2023/04/29 08:26:29;;;;;;;7.77;4.47;;;15.80;1.00;;;;;;5114299;28;20471;-81
2023/04/29 08:28:55;;;;;;;6.57;4.07;;;15.60;1.00;;;;;;5110303;28;20420;-80
2023/04/29 08:38:05;;;;;;;4.67;3.90;;;15.50;1.00;;;;;;5094538;28;20819;-84
2023/04/29 08:43:53;;;;;;;5.03;3.90;;;15.20;1.00;;;;;;5114156;28;20430;-84
2023/04/29 08:46:47;;;;;;;9.20;4.10;;;15.20;1.00;;;;;;5114490;28;20411;-81
2023/04/29 08:49:13;;;;;;;6.30;4.77;;;15.20;1.00;;;;;;5078982;28;20237;-81
2023/04/29 08:52:05;;;;;;;10.33;4.30;;;15.10;1.00;;;;;;5103344;28;20630;-81
2023/04/29 08:55:10;;;;;;;8.90;3.87;;;15.00;1.00;;;;;;5095706;28;20418;-81
2023/04/29 08:57:39;;;;;;;12.33;4.40;;;14.90;1.00;;;;;;5091386;28;20511;-81
2023/04/29 09:00:09;;;;;;;11.43;4.47;;;14.80;1.00;;;;;;5093518;28;20420;-81
2023/04/29 09:02:42;;;;;;;5.40;3.87;;;14.90;1.00;;;;;;5094147;28;20404;-84
2023/04/29 09:05:17;;;;;;;9.40;4.63;;;14.90;1.00;;;;;;5093912;28;20494;-84
2023/04/29 09:07:43;;;;;;;6.20;3.90;;;14.80;1.00;;;;;;5093247;28;20479;-83
2023/04/29 09:17:34;;;;;;;5.93;4.50;;;15.00;1.00;;;;;;5109942;28;20424;-80
2023/04/29 09:20:25;;;;;;;7.20;4.20;;;15.00;1.00;;;;;;5096880;28;20467;-81
2023/04/29 09:23:16;;;;;;;6.77;4.17;;;15.10;1.00;;;;;;5101563;28;20783;-81
2023/04/29 09:29:14;;;;;;;6.23;3.47;;;15.30;1.00;;;;;;5093612;28;20455;-81
2023/04/29 09:32:36;;;;;;;6.10;3.73;;;15.40;1.00;;;;;;5098105;28;20965;-84
2023/04/29 09:38:23;;;;;;;7.50;4.33;;;15.90;1.00;;;;;;5117497;28;20461;-83
2023/04/29 09:40:50;;;;;;;3.10;2.80;;;16.30;1.00;;;;;;5083323;28;20428;-83
2023/04/29 09:46:37;;;;;;;6.33;3.17;;;16.40;1.00;;;;;;5097327;28;20915;-80
2023/04/29 09:49:22;;;;;;;4.17;3.30;;;16.50;1.00;;;;;;5097023;28;20391;-81
2023/04/29 09:52:09;;;;;;;12.87;7.33;;;16.20;1.00;;;;;;5098203;28;20201;-81
2023/04/29 09:55:16;;;;;;;3.40;3.10;;;16.10;1.00;;;;;;5097960;28;20930;-80
2023/04/29 09:58:29;;;;;;;3.70;3.40;;;16.00;1.00;;;;;;5115398;28;20427;-81
2023/04/29 10:01:34;;;;;;;4.90;3.57;;;16.00;1.00;;;;;;5096324;28;20986;-82
2023/04/29 10:04:23;;;;;;;4.20;3.27;;;16.00;1.00;;;;;;5096647;28;20356;-81
2023/04/29 10:07:06;;;;;;;5.70;3.87;;;15.70;1.00;;;;;;5098240;28;20916;-81
2023/04/29 10:09:47;;;;;;;5.30;4.20;;;15.60;1.00;;;;;;5112660;28;20440;-81
2023/04/29 10:12:29;;;;;;;8.43;3.90;;;15.50;1.00;;;;;;5082635;28;20479;-81
2023/04/29 10:15:28;;;;;;;4.80;3.40;;;15.40;1.00;;;;;;5098485;28;20439;-81
2023/04/29 10:18:08;;;;;;;4.83;3.20;;;15.40;1.00;;;;;;5111730;28;20474;-80
2023/04/29 10:20:39;;;;;;;3.70;3.27;;;15.70;1.00;;;;;;5115238;27;20962;-80
2023/04/29 10:26:28;;;;;;;5.37;3.13;;;16.00;1.00;;;;;;5131187;27;20402;-81
2023/04/29 10:29:07;;;;;;;3.33;3.00;;;16.10;1.00;;;;;;5106886;28;20514;-81
2023/04/29 10:31:48;;;;;;;3.73;3.27;;;16.10;1.00;;;;;;5116319;27;20958;-80
2023/04/29 10:37:36;;;;;;;3.73;2.93;;;16.30;1.00;;;;;;5116503;28;20430;-83
2023/04/29 10:40:15;;;;;;;8.73;3.97;;;16.30;1.00;;;;;;5116365;28;20420;-84
2023/04/29 10:43:34;;;;;;;3.07;2.87;;;16.10;1.00;;;;;;5126454;27;20514;-82
2023/04/29 10:46:28;;;;;;;7.90;3.87;;;16.10;1.00;;;;;;5099632;28;20436;-82
2023/04/29 10:49:32;;;;;;;3.17;2.67;;;16.10;1.00;;;;;;5117237;27;20441;-82
2023/04/29 10:52:05;;;;;;;5.93;3.13;;;16.20;1.00;;;;;;5132794;27;20513;-83
2023/04/29 10:55:06;;;;;;;3.53;3.17;;;16.50;1.00;;;;;;5136410;27;20423;-83
2023/04/29 10:58:22;;;;;;;4.83;2.77;;;16.80;1.00;;;;;;5134640;27;20428;-82
2023/04/29 11:01:06;;;;;;;2.73;2.53;;;17.10;1.00;;;;;;5119989;27;20458;-82
2023/04/29 11:03:57;;;;;;;2.70;2.50;;;17.00;1.00;;;;;;5116117;27;20421;-83
2023/04/29 11:07:05;;;;;;;2.67;2.47;;;17.50;1.00;;;;;;5115972;28;20401;-83
2023/04/29 11:13:29;;;;;;;2.80;2.30;;;18.60;1.00;;;;;;5115824;27;20522;-84
2023/04/29 11:19:17;;;;;;;2.77;2.53;;;19.00;1.00;;;;;;5123549;27;20752;-86
2023/04/29 11:21:44;;;;;;;3.70;2.67;;;18.70;1.00;;;;;;5132836;27;20489;-84
2023/04/29 11:24:17;;;;;;;2.60;2.40;;;18.70;1.00;;;;;;5129986;27;20423;-84
2023/04/29 11:26:43;;;;;;;2.53;2.33;;;18.90;1.00;;;;;;5116235;27;20458;-81
2023/04/29 11:29:24;;;;;;;2.27;2.13;;;18.90;1.00;;;;;;5115358;28;20479;-82
2023/04/29 11:35:40;;;;;;;2.50;2.30;;;18.60;1.00;;;;;;5119805;27;20409;-81
2023/04/29 11:38:26;;;;;;;2.43;2.33;;;18.30;1.00;;;;;;5136110;27;20399;-81
2023/04/29 11:41:16;;;;;;;5.00;2.83;;;18.30;1.00;;;;;;5097126;28;20800;-81
2023/04/29 11:47:05;;;;;;;3.00;2.13;;;18.50;1.00;;;;;;5114893;28;20406;-81
2023/04/29 11:49:36;;;;;;;2.43;2.30;;;18.80;1.00;;;;;;5115516;27;20431;-83
2023/04/29 11:52:11;;;;;;;2.13;2.03;;;19.00;1.00;;;;;;5115422;28;20438;-83
2023/04/29 11:54:53;;;;;;;2.30;2.10;;;19.20;1.00;;;;;;5114890;28;20874;-83
2023/04/29 11:57:35;;;;;;;2.40;2.20;;;19.10;1.00;;;;;;5114297;28;20911;-83
2023/04/29 12:00:12;;;;;;;2.63;2.43;;;19.00;1.00;;;;;;5096802;28;20503;-83
2023/04/29 12:02:47;;;;;;;4.07;2.30;;;18.90;1.00;;;;;;5115047;28;20526;-83
2023/04/29 12:05:25;;;;;;;2.53;2.33;;;19.00;1.00;;;;;;5114708;28;20479;-83
2023/04/29 12:11:12;;;;;;;4.63;2.30;;;19.50;1.00;;;;;;5115292;28;20455;-87
2023/04/29 12:14:07;;;;;;;2.30;2.20;;;19.20;1.00;;;;;;5097901;27;20456;-89
2023/04/29 12:16:41;;;;;;;3.17;2.70;;;19.20;1.00;;;;;;5101348;28;20449;-89
2023/04/29 12:22:32;;;;;;;2.93;2.17;;;19.00;1.00;;;;;;5132818;27;20471;-91
2023/04/29 12:31:42;;;;;;;3.97;2.27;;;19.10;1.00;;;;;;5134631;27;20447;-91
2023/04/29 12:37:29;;;;;;;2.00;1.60;;;19.10;1.00;;;;;;5134985;27;20406;-83
2023/04/29 12:43:17;;;;;;;5.77;1.70;;;18.90;1.00;;;;;;5114479;28;20193;-84
2023/04/29 12:46:13;;;;;;;1.90;1.80;;;18.60;1.00;;;;;;5096294;28;20408;-84
2023/04/29 12:49:25;;;;;;;2.23;2.10;;;18.40;1.00;;;;;;5114844;28;20440;-91
2023/04/29 12:51:51;;;;;;;2.10;2.00;;;18.30;1.00;;;;;;5114907;28;20538;-91
2023/04/29 12:57:38;;;;;;;3.50;1.87;;;18.10;1.00;;;;;;5115175;28;20240;-90
2023/04/29 13:00:28;;;;;;;1.93;1.83;;;17.90;1.00;;;;;;5114388;28;20478;-91
2023/04/29 13:06:16;;;;;;;1.90;1.80;;;17.80;1.00;;;;;;5114099;28;20398;-85
2023/04/29 13:12:08;;;;;;;2.43;2.23;;;17.70;1.00;;;;;;5118449;28;20964;-85
2023/04/29 13:24:38;;;;;;;3.93;2.30;;;17.30;1.00;;;;;;5118096;28;20867;-85
2023/04/29 13:27:40;;;;;;;2.17;2.07;;;17.30;1.00;;;;;;5100182;28;20410;-85
2023/04/29 13:34:04;;;;;;;4.23;2.00;;;17.40;1.00;;;;;;5118302;28;20421;-86
2023/04/29 13:40:06;;;;;;;1.90;1.80;;;17.90;1.00;;;;;;5117969;28;20426;-90
2023/04/29 13:45:53;;;;;;;1.83;1.73;;;18.30;1.00;;;;;;5127716;27;20429;-91
2023/04/29 13:48:38;;;;;;;1.73;1.63;;;18.50;1.00;;;;;;5118599;27;20891;-86
2023/04/29 13:54:29;;;;;;;3.00;1.77;;;18.60;1.00;;;;;;5137837;27;20455;-79
2023/04/29 14:00:16;;;;;;;2.73;2.10;;;18.80;1.00;;;;;;5134098;27;20495;-87
2023/04/29 14:02:42;;;;;;;1.63;1.53;;;19.00;1.00;;;;;;5115191;27;20427;-87
2023/04/29 14:11:51;;;;;;;5.00;2.40;;;19.30;1.00;;;;;;5117725;28;20496;-90
2023/04/29 14:14:29;;;;;;;2.83;1.97;;;19.30;1.00;;;;;;5099479;28;20417;-88
2023/04/29 14:20:17;;;;;;;3.63;2.10;;;19.50;1.00;;;;;;5133132;27;20819;-89
2023/04/29 14:23:28;;;;;;;1.90;1.80;;;19.50;1.00;;;;;;5138394;27;20389;-88
2023/04/29 14:29:52;;;;;;;1.87;1.77;;;19.50;1.00;;;;;;5120075;27;20444;-88
2023/04/29 14:49:08;;;;;;;2.70;2.50;;;19.60;1.00;;;;;;5116676;28;20403;-87
2023/04/29 14:52:05;;;;;;;2.20;2.10;;;19.50;1.00;;;;;;5098204;27;20460;-83
2023/04/29 14:54:41;;;;;;;3.03;2.17;;;19.50;1.00;;;;;;5137047;27;20166;-82
2023/04/29 14:57:17;;;;;;;4.07;3.40;;;19.50;1.00;;;;;;5136345;27;20925;-82
2023/04/29 14:59:48;;;;;;;2.43;2.23;;;19.40;1.00;;;;;;5116880;27;20481;-82
2023/04/29 15:02:17;;;;;;;2.70;2.50;;;19.30;1.00;;;;;;5124654;27;20452;-82
2023/04/29 15:04:59;;;;;;;4.87;2.67;;;19.10;1.00;;;;;;5097842;28;20781;-83
2023/04/29 15:07:29;;;;;;;7.17;3.00;;;18.90;1.00;;;;;;5115933;28;20879;-83
2023/04/29 15:09:59;;;;;;;3.20;2.90;;;18.80;1.00;;;;;;5110586;27;20413;-82
2023/04/29 15:12:29;;;;;;;3.27;3.00;;;18.60;1.00;;;;;;5136337;27;20434;-82
2023/04/29 15:15:05;;;;;;;3.00;2.80;;;18.50;1.00;;;;;;5133410;27;20831;-82
2023/04/29 15:17:47;;;;;;;3.00;2.80;;;18.50;1.00;;;;;;5097346;28;20468;-82
2023/04/29 15:20:35;;;;;;;5.10;3.90;;;18.50;1.00;;;;;;5097443;28;20429;-83
2023/04/29 15:23:05;;;;;;;3.40;3.10;;;18.50;1.00;;;;;;5115922;28;20423;-82
2023/04/29 15:25:35;;;;;;;3.87;2.90;;;18.40;1.00;;;;;;5096986;28;20834;-82
2023/04/29 15:28:24;;;;;;;3.20;3.00;;;18.40;1.00;;;;;;5128736;27;20413;-82
2023/04/29 15:30:54;;;;;;;2.57;2.37;;;;;;;;;;5114624;28;20474;-83
2023/04/29 15:33:29;;;;;;;4.00;2.43;;;18.00;1.00;;;;;;5115384;28;20386;-82
2023/04/29 15:39:16;;;;;;;2.80;2.43;;;17.50;1.00;;;;;;5125687;27;20533;-87
2023/04/29 15:45:05;;;;;;;2.13;1.90;;;17.20;1.00;;;;;;5116915;27;20260;-87
2023/04/29 15:48:16;;;;;;;2.90;1.63;;;17.10;1.00;;;;;;5115827;28;20431;-87
2023/04/29 15:54:23;;;;;;;2.60;2.10;;;16.90;1.00;;;;;;5115515;28;20498;-86
2023/04/29 15:56:49;;;;;;;5.30;1.33;;;16.70;1.00;;;;;;5115539;28;20365;-86
2023/04/29 16:02:37;;;;;;;3.10;1.50;;;16.40;1.00;;;;;;5119317;27;20868;-89
2023/04/29 16:05:06;;;;;;;3.77;1.40;;;16.20;1.00;;;;;;5115234;28;20406;-82
2023/04/29 16:07:32;;;;;;;2.60;2.20;;;16.20;1.00;;;;;;5096970;28;20187;-87
2023/04/29 16:09:58;;;;;;;7.87;2.57;;;16.10;1.00;;;;;;5100782;27;20981;-85
2023/04/29 16:12:24;;;;;;;2.37;2.17;;;16.00;1.00;;;;;;5116928;27;20448;-87
2023/04/29 16:14:49;;;;;;;3.93;3.00;;;16.00;1.00;;;;;;5114180;27;20196;-87
2023/04/29 16:17:15;;;;;;;3.10;2.90;;;15.70;1.00;;;;;;5114081;27;20593;-87
2023/04/29 16:19:41;;;;;;;5.53;3.23;;;15.70;1.00;;;;;;5134109;27;20647;-87
2023/04/29 16:22:07;;;;;;;8.07;3.30;;;15.40;1.00;;;;;;5135177;27;20181;-87
2023/04/29 16:31:47;;;;;;;5.77;4.47;;;15.20;1.00;;;;;;5128653;27;20467;-90
2023/04/29 16:34:53;;;;;;;9.70;4.60;;;15.20;1.00;;;;;;5117321;27;20442;-91
2023/04/29 16:40:40;;;;;;;7.53;5.20;;;15.00;1.00;;;;;;5114794;28;20399;-90
2023/04/29 16:43:14;;;;;;;6.43;4.97;;;15.00;1.00;;;;;;5108979;27;20426;-90
2023/04/29 16:49:25;;;;;;;6.03;4.77;;;15.00;1.00;;;;;;5120125;27;20400;-91
2023/04/29 16:56:07;;;;;;;7.13;4.23;;;14.90;1.00;;;;;;5135241;27;20487;-85
2023/04/29 16:58:33;;;;;;;7.80;5.20;;;14.90;1.00;;;;;;5133734;28;20453;-84
2023/04/29 17:01:40;;;;;;;6.57;4.70;;;15.00;1.00;;;;;;5134991;28;20431;-88
2023/04/29 17:10:50;;;;;;;7.43;5.67;;;15.00;1.00;;;;;;5125244;28;20449;-91
2023/04/29 17:17:22;;;;;;;7.07;5.40;;;15.00;1.00;;;;;;5130842;28;20218;-93
2023/04/29 17:23:47;;;;;;;9.23;6.17;;;14.90;1.00;;;;;;5127625;28;20468;-86
2023/04/29 17:29:35;;;;;;;6.57;4.90;;;14.90;1.00;;;;;;5125039;28;20439;-87
2023/04/29 17:35:22;;;;;;;8.27;6.17;;;14.80;1.00;;;;;;5134957;28;20414;-83
2023/04/29 17:38:22;;;;;;;13.30;6.47;;;14.80;1.00;;;;;;5132345;28;20883;-86
2023/04/29 17:44:10;;;;;;;13.70;5.23;;;14.70;1.00;;;;;;5114048;28;20720;-87
2023/04/29 17:53:53;;;;;;;8.90;5.90;;;14.50;1.00;;;;;;5114007;28;20446;-84
2023/04/29 17:57:10;;;;;;;7.77;5.60;;;14.50;1.00;;;;;;5117475;28;20439;-84
2023/04/29 18:13:58;;;;;;;10.10;6.67;;;14.30;1.00;;;;;;5138129;27;20422;-89
2023/04/29 18:16:46;;;;;;;9.67;5.93;;;14.20;1.00;;;;;;5112695;27;20438;-90
2023/04/29 18:19:29;;;;;;;12.30;6.90;;;14.20;1.00;;;;;;5120324;27;20634;-89
2023/04/29 18:22:00;;;;;;;10.93;7.23;;;14.20;1.00;;;;;;5120109;27;20543;-82
2023/04/29 18:24:29;;;;;;;10.20;7.47;;;14.20;1.00;;;;;;5120119;27;20427;-82
2023/04/29 18:27:22;;;;;;;9.20;7.17;;;14.10;1.00;;;;;;5132095;27;20435;-85
2023/04/29 18:29:59;;;;;;;8.57;6.80;;;14.10;1.00;;;;;;5131080;27;20407;-83
2023/04/29 18:32:29;;;;;;;8.80;6.60;;;14.10;1.00;;;;;;5117407;27;20509;-84
2023/04/29 18:34:55;;;;;;;13.40;6.60;;;14.10;1.00;;;;;;5120766;27;20423;-81
2023/04/29 18:37:23;;;;;;;9.20;6.70;;;14.10;1.00;;;;;;5124541;27;20430;-83
2023/04/29 18:40:11;;;;;;;9.60;6.80;;;14.10;1.00;;;;;;5136183;27;20157;-83
2023/04/29 18:42:53;;;;;;;13.00;7.30;;;14.10;1.00;;;;;;5098528;28;20420;-83
2023/04/29 18:45:59;;;;;;;9.10;6.23;;;14.00;1.00;;;;;;5116474;28;20446;-83
2023/04/29 18:51:46;;;;;;;12.40;7.70;;;14.00;1.00;;;;;;5115958;28;20458;-82
2023/04/29 18:54:47;;;;;;;8.23;6.67;;;14.00;1.00;;;;;;5117299;28;20400;-89
2023/04/29 18:57:53;;;;;;;10.13;7.23;;;14.00;1.00;;;;;;5115734;28;20188;-90